createdAt,value
2023-02-21T03:08:19.202Z,895.00
2023-02-21T03:09:19.230Z,887.00
2023-02-21T03:10:19.237Z,905.00
2023-02-21T03:11:19.230Z,886.00
2023-02-21T03:12:19.262Z,894.00
2023-02-21T03:13:19.265Z,904.00
2023-02-21T03:14:19.306Z,896.00
2023-02-21T03:15:19.360Z,907.00
2023-02-21T03:16:19.434Z,900.00
2023-02-21T03:17:19.368Z,902.00
2023-02-21T03:18:19.391Z,908.00
2023-02-21T03:19:19.416Z,915.00
2023-02-21T03:20:19.447Z,908.00
2023-02-21T03:21:19.506Z,936.00
2023-02-21T03:22:19.508Z,934.00
2023-02-21T03:23:19.509Z,937.00
2023-02-21T03:24:19.531Z,943.00
2023-02-21T03:25:19.579Z,960.00
2023-02-21T03:26:19.631Z,982.00
2023-02-21T03:27:19.646Z,985.00
2023-02-21T03:28:19.693Z,991.00
2023-02-21T03:29:19.694Z,970.00
2023-02-21T03:31:19.811Z,970.00
2023-02-21T03:32:19.827Z,962.00
2023-02-21T03:33:19.862Z,975.00
2023-02-21T03:34:19.912Z,980.00
2023-02-21T03:35:19.928Z,986.00
2023-02-21T03:36:20.015Z,979.00
2023-02-21T03:37:20.017Z,969.00
2023-02-21T03:38:20.043Z,984.00
2023-02-21T03:39:20.089Z,965.00
2023-02-21T03:40:20.215Z,972.00
2023-02-21T03:41:20.143Z,968.00
2023-02-21T03:42:20.176Z,965.00
2023-02-21T03:43:20.220Z,959.00
2023-02-21T03:44:20.266Z,976.00
2023-02-21T03:45:20.313Z,957.00
2023-02-21T03:46:20.412Z,971.00
2023-02-21T03:47:20.410Z,960.00
2023-02-21T03:48:31.091Z,938.00
2023-02-21T03:50:20.555Z,943.00
2023-02-21T03:51:20.532Z,953.00
2023-02-21T03:52:20.509Z,948.00
2023-02-21T03:53:20.536Z,966.00
2023-02-21T03:54:20.549Z,956.00
2023-02-21T03:55:20.554Z,965.00
2023-02-21T03:56:21.777Z,947.00
2023-02-21T03:57:20.559Z,955.00
2023-02-21T03:58:20.655Z,965.00
2023-02-21T03:59:20.718Z,961.00
2023-02-21T04:00:20.662Z,945.00
2023-02-21T04:01:20.733Z,955.00
2023-02-21T04:02:20.672Z,953.00
2023-02-21T04:03:20.724Z,946.00
2023-02-21T04:04:20.726Z,945.00
2023-02-21T04:05:20.783Z,940.00
2023-02-21T04:06:20.780Z,936.00
2023-02-21T04:07:20.806Z,954.00
2023-02-21T04:55:22.076Z,915.00
2023-02-21T04:56:22.087Z,920.00
2023-02-21T04:57:22.085Z,921.00
2023-02-21T04:58:22.087Z,912.00
2023-02-21T04:59:22.108Z,910.00
2023-02-21T05:00:22.129Z,902.00
2023-02-21T05:01:22.230Z,900.00
2023-02-21T05:02:22.165Z,918.00
2023-02-21T05:03:22.163Z,911.00
2023-02-21T05:04:22.207Z,910.00
2023-02-21T05:05:22.236Z,911.00
2023-02-21T05:06:22.271Z,917.00
2023-02-21T05:07:22.300Z,912.00
2023-02-21T05:08:25.536Z,913.00
2023-02-21T05:09:22.308Z,914.00
2023-02-21T05:10:22.340Z,916.00
2023-02-21T05:11:22.332Z,916.00
2023-02-21T05:12:22.373Z,921.00
2023-02-21T05:13:22.389Z,922.00
2023-02-21T05:14:22.375Z,918.00
2023-02-21T05:15:22.391Z,913.00
2023-02-21T05:16:22.458Z,917.00
2023-02-21T05:17:22.425Z,908.00
2023-02-21T05:18:22.447Z,916.00
2023-02-21T05:19:22.460Z,900.00
2023-02-21T05:20:22.437Z,905.00
2023-02-21T05:21:22.464Z,912.00
2023-02-21T05:22:22.477Z,903.00
2023-02-21T05:23:22.494Z,897.00
2023-02-21T05:24:22.529Z,913.00
2023-02-21T05:25:22.501Z,895.00
2023-02-21T05:26:22.535Z,889.00
2023-02-21T05:27:22.525Z,899.00
2023-02-21T05:28:22.519Z,908.00
2023-02-21T05:29:22.535Z,895.00
2023-02-21T05:30:22.631Z,905.00
2023-02-21T05:31:22.606Z,891.00
2023-02-21T05:32:22.626Z,890.00
2023-02-21T05:33:22.549Z,889.00
2023-02-21T05:34:22.624Z,882.00
2023-02-21T05:35:22.593Z,880.00
2023-02-21T05:36:22.637Z,881.00
2023-02-21T05:37:22.650Z,866.00
2023-02-21T05:38:22.654Z,890.00
2023-02-21T05:39:22.689Z,892.00
2023-02-21T05:40:22.673Z,871.00
2023-02-21T05:41:22.709Z,881.00
2023-02-21T05:42:22.722Z,872.00
2023-02-21T05:52:22.744Z,863.00
2023-02-21T05:58:22.786Z,924.00
2023-02-21T05:59:22.812Z,920.00
2023-02-21T06:00:22.837Z,922.00
2023-02-21T06:01:29.861Z,923.00
2023-02-21T06:02:22.895Z,925.00
2023-02-21T06:03:22.907Z,927.00
2023-02-21T06:04:22.856Z,926.00
2023-02-21T06:05:22.870Z,929.00
2023-02-21T06:06:22.880Z,933.00
2023-02-21T06:07:22.911Z,929.00
2023-02-21T06:08:22.886Z,940.00
2023-02-21T06:09:22.954Z,931.00
2023-02-21T06:10:22.941Z,931.00
2023-02-21T06:11:22.915Z,930.00
2023-02-21T06:12:22.941Z,928.00
2023-02-21T06:13:22.932Z,926.00
2023-02-21T06:14:22.938Z,943.00
2023-02-21T06:15:22.933Z,929.00
2023-02-21T06:16:22.978Z,943.00
2023-02-21T06:17:22.994Z,944.00
2023-02-21T06:18:22.975Z,939.00
2023-02-21T06:19:22.969Z,954.00
2023-02-21T06:20:22.992Z,940.00
2023-02-21T06:21:22.971Z,950.00
2023-02-21T06:22:23.035Z,944.00
2023-02-21T06:23:23.011Z,957.00
2023-02-21T06:24:22.989Z,969.00
2023-02-21T06:25:22.997Z,998.00
2023-02-21T06:26:22.996Z,989.00
2023-02-21T06:27:23.010Z,1000.00
2023-02-21T06:28:23.012Z,999.00
2023-02-21T06:29:23.045Z,979.00
2023-02-21T06:30:23.332Z,979.00
2023-02-21T06:31:23.106Z,989.00
2023-02-21T06:32:23.407Z,1004.00
2023-02-21T06:33:23.075Z,1066.00
2023-02-21T06:34:23.182Z,1142.00
2023-02-21T06:35:23.092Z,1156.00
2023-02-21T06:36:23.082Z,1145.00
2023-02-21T06:37:23.453Z,1121.00
2023-02-21T06:38:23.117Z,1100.00
2023-02-21T06:39:23.077Z,1112.00
2023-02-21T06:40:23.100Z,1096.00
2023-02-21T06:41:23.111Z,1127.00
2023-02-21T06:42:23.582Z,1126.00
2023-02-21T06:43:23.206Z,1135.00
2023-02-21T06:44:23.141Z,1144.00
2023-02-21T06:45:23.160Z,1139.00
2023-02-21T06:46:23.238Z,1156.00
2023-02-21T06:47:23.466Z,1148.00
2023-02-21T06:48:23.160Z,1151.00
2023-02-21T06:49:23.179Z,1166.00
2023-02-21T06:50:23.147Z,1166.00
2023-02-21T06:51:23.171Z,1167.00
2023-02-21T06:52:23.209Z,1175.00
2023-02-21T06:53:23.195Z,1173.00
2023-02-21T06:54:23.200Z,1170.00
2023-02-21T06:55:25.424Z,1169.00
2023-02-21T06:56:23.367Z,1157.00
2023-02-21T06:57:23.439Z,1135.00
2023-02-21T06:58:23.926Z,1175.00
2023-02-21T06:59:23.556Z,1172.00
2023-02-21T07:00:23.651Z,1194.00
2023-02-21T07:01:23.775Z,1224.00
2023-02-21T07:02:23.722Z,1225.00
2023-02-21T07:03:23.928Z,1224.00
2023-02-21T07:04:23.910Z,1234.00
2023-02-21T07:05:23.906Z,1250.00
2023-02-21T07:06:23.947Z,1240.00
2023-02-21T07:07:24.032Z,1272.00
2023-02-21T07:08:24.439Z,1274.00
2023-02-21T07:09:24.112Z,1290.00
2023-02-21T07:10:24.160Z,1299.00
2023-02-21T07:11:24.226Z,1298.00
2023-02-21T07:12:24.258Z,1305.00
2023-02-21T07:13:24.292Z,1342.00
2023-02-21T07:14:24.313Z,1337.00
2023-02-21T07:15:24.359Z,1373.00
2023-02-21T07:19:24.493Z,1398.00
2023-02-21T07:21:24.518Z,1373.00
2023-02-21T07:22:24.568Z,1338.00
2023-02-21T07:23:24.992Z,1325.00
2023-02-21T07:32:24.951Z,1366.00
2023-02-21T07:33:25.417Z,1376.00
2023-02-21T07:35:25.024Z,1404.00
2023-02-21T07:36:25.043Z,1423.00
2023-02-21T07:37:25.110Z,1452.00
2023-02-21T07:38:25.501Z,1447.00
2023-02-21T07:39:25.107Z,1476.00
2023-02-21T07:40:25.139Z,1519.00
2023-02-21T07:41:25.162Z,1518.00
2023-02-21T07:42:25.184Z,1507.00
2023-02-21T07:43:25.433Z,1479.00
2023-02-21T07:44:25.254Z,1476.00
2023-02-21T07:45:25.254Z,1486.00
2023-02-21T07:46:25.270Z,1491.00
2023-02-21T07:47:25.260Z,1476.00
2023-02-21T07:48:25.482Z,1464.00
2023-02-21T07:49:25.319Z,1468.00
2023-02-21T07:50:25.304Z,1471.00
2023-02-21T07:51:25.294Z,1472.00
2023-02-21T07:52:25.323Z,1472.00
2023-02-21T07:53:25.303Z,1466.00
2023-02-21T07:54:25.298Z,1464.00
2023-02-21T07:55:25.347Z,1473.00
2023-02-21T07:56:25.313Z,1480.00
2023-02-21T07:57:25.336Z,1477.00
2023-02-21T07:58:25.348Z,1478.00
2023-02-21T07:59:25.342Z,1480.00
2023-02-21T08:00:25.391Z,1490.00
2023-02-21T08:01:25.414Z,1443.00
2023-02-21T08:02:25.362Z,1333.00
2023-02-21T08:03:25.400Z,1315.00
2023-02-21T08:04:25.532Z,1273.00
2023-02-21T08:05:25.390Z,1311.00
2023-02-21T08:06:25.420Z,1233.00
2023-02-21T08:07:25.476Z,1224.00
2023-02-21T08:08:25.477Z,1215.00
2023-02-21T08:09:25.546Z,1293.00
2023-02-21T08:10:25.722Z,1273.00
2023-02-21T08:11:25.631Z,1252.00
2023-02-21T08:12:25.640Z,1267.00
2023-02-21T08:13:25.670Z,1258.00
2023-02-21T08:14:25.692Z,1267.00
2023-02-21T08:15:25.701Z,1266.00
2023-02-21T08:16:25.830Z,1268.00
2023-02-21T08:17:25.705Z,1286.00
2023-02-21T08:18:25.749Z,1287.00
2023-02-21T08:19:25.742Z,1285.00
2023-02-21T08:20:25.799Z,1283.00
2023-02-21T08:21:25.716Z,1311.00
2023-02-21T08:22:25.743Z,1306.00
2023-02-21T08:23:25.751Z,1322.00
2023-02-21T08:24:25.773Z,1311.00
2023-02-21T08:25:25.822Z,1325.00
2023-02-21T08:26:25.830Z,1329.00
2023-02-21T08:27:25.856Z,1332.00
2023-02-21T08:28:25.980Z,1352.00
2023-02-21T08:29:25.954Z,1365.00
2023-02-21T08:30:26.123Z,1379.00
2023-02-21T08:32:26.166Z,1396.00
2023-02-21T08:34:26.186Z,1221.00
2023-02-21T08:35:26.240Z,1267.00
2023-02-21T08:36:26.247Z,1307.00
2023-02-21T08:37:26.280Z,1288.00
2023-02-21T08:38:26.234Z,1218.00
2023-02-21T08:39:26.261Z,1167.00
2023-02-21T08:40:26.295Z,1159.00
2023-02-21T08:41:26.275Z,1243.00
2023-02-21T08:42:26.324Z,1301.00
2023-02-21T08:43:26.492Z,1348.00
2023-02-21T08:44:26.362Z,1373.00
2023-02-21T08:45:26.442Z,1318.00
2023-02-21T08:46:26.447Z,1308.00
2023-02-21T08:47:26.430Z,1293.00
2023-02-21T08:48:26.458Z,1284.00
2023-02-21T08:49:26.453Z,1239.00
2023-02-21T08:50:26.526Z,1244.00
2023-02-21T08:51:26.520Z,1233.00
2023-02-21T08:52:26.543Z,1228.00
2023-02-21T08:53:27.004Z,1220.00
2023-02-21T08:54:26.590Z,1213.00
2023-02-21T08:55:26.588Z,1216.00
2023-02-21T08:56:26.610Z,1231.00
2023-02-21T08:57:26.657Z,1233.00
2023-02-21T08:58:26.667Z,1236.00
2023-02-21T08:59:26.752Z,1247.00
2023-02-21T09:00:26.676Z,1214.00
2023-02-21T09:01:26.719Z,1206.00
2023-02-21T09:02:26.824Z,1198.00
2023-02-21T09:03:26.731Z,1210.00
2023-02-21T09:04:26.967Z,1200.00
2023-02-21T09:05:26.744Z,1163.00
2023-02-21T09:06:26.778Z,1177.00
2023-02-21T09:07:26.767Z,1143.00
2023-02-21T09:08:26.758Z,1146.00
2023-02-21T09:09:26.795Z,1163.00
2023-02-21T09:10:26.816Z,1156.00
2023-02-21T09:11:26.790Z,1128.00
2023-02-21T09:12:26.805Z,1132.00
2023-02-21T09:13:26.816Z,1105.00
2023-02-21T09:14:26.985Z,1079.00
2023-02-21T09:15:26.812Z,1058.00
2023-02-21T09:16:26.889Z,1120.00
2023-02-21T09:17:26.817Z,1070.00
2023-02-21T09:18:26.847Z,1095.00
2023-02-21T09:19:26.853Z,1056.00
2023-02-21T09:20:26.893Z,1099.00
2023-02-21T09:21:26.869Z,1121.00
2023-02-21T09:22:26.861Z,996.00
2023-02-21T09:23:26.883Z,1033.00
2023-02-21T09:24:26.995Z,1096.00
2023-02-21T09:25:26.906Z,1055.00
2023-02-21T09:26:26.907Z,1036.00
2023-02-21T09:27:26.920Z,1025.00
2023-02-21T09:28:26.912Z,991.00
2023-02-21T09:30:27.428Z,1019.00
2023-02-21T09:31:26.933Z,1114.00
2023-02-21T09:32:26.981Z,1129.00
2023-02-21T09:35:26.954Z,1030.00
2023-02-21T09:44:27.521Z,849.00
2023-02-21T09:45:27.065Z,812.00
2023-02-21T09:50:27.137Z,820.00
2023-02-21T09:51:27.156Z,853.00
2023-02-21T09:52:27.171Z,871.00
2023-02-21T09:53:27.201Z,883.00
2023-02-21T09:54:27.253Z,789.00
2023-02-21T09:55:29.118Z,563.00
2023-02-21T09:56:27.257Z,493.00
2023-02-21T09:57:27.254Z,474.00
2023-02-21T09:58:27.239Z,500.00
2023-02-21T09:59:27.253Z,454.00
2023-02-21T10:00:27.256Z,531.00
2023-02-21T10:01:27.286Z,554.00
2023-02-21T10:04:27.581Z,520.00
2023-02-21T10:05:27.255Z,533.00
2023-02-21T10:06:27.299Z,500.00
2023-02-21T10:07:27.287Z,498.00
2023-02-21T10:08:27.382Z,589.00
2023-02-21T10:09:27.318Z,656.00
2023-02-21T10:10:27.332Z,824.00
2023-02-21T10:11:27.310Z,642.00
2023-02-21T10:12:27.311Z,716.00
2023-02-21T10:13:27.306Z,674.00
2023-02-21T10:14:27.388Z,897.00
2023-02-21T10:15:27.317Z,1080.00
2023-02-21T10:17:27.353Z,1215.00
2023-02-21T10:18:27.316Z,1303.00
2023-02-21T10:19:27.315Z,1325.00
2023-02-21T10:20:27.527Z,1370.00
2023-02-21T10:21:27.290Z,1365.00
2023-02-21T10:22:27.354Z,1418.00
2023-02-21T10:23:27.307Z,1410.00
2023-02-21T10:24:27.356Z,1422.00
2023-02-21T10:25:27.570Z,1438.00
2023-02-21T10:26:27.342Z,1463.00
2023-02-21T10:27:27.309Z,1336.00
2023-02-21T10:28:27.303Z,1404.00
2023-02-21T10:29:27.301Z,1440.00
2023-02-21T10:30:27.385Z,1407.00
2023-02-21T10:31:27.394Z,1424.00
2023-02-21T10:32:27.279Z,1454.00
2023-02-21T10:33:27.279Z,1468.00
2023-02-21T10:34:27.290Z,1448.00
2023-02-21T10:36:27.254Z,1455.00
2023-02-21T10:37:27.306Z,1459.00
2023-02-21T10:38:27.244Z,1486.00
2023-02-21T10:39:27.257Z,1462.00
2023-02-21T10:40:27.538Z,1471.00
2023-02-21T10:42:27.212Z,1312.00
2023-02-21T10:43:27.181Z,1299.00
2023-02-21T10:44:27.178Z,1353.00
2023-02-21T10:46:27.241Z,1558.00
2023-02-21T10:47:27.163Z,1512.00
2023-02-21T10:48:27.138Z,1531.00
2023-02-21T10:49:27.145Z,1540.00
2023-02-21T10:50:27.166Z,1523.00
2023-02-21T10:51:27.146Z,1554.00
2023-02-21T10:52:27.128Z,1392.00
2023-02-21T10:54:27.138Z,1355.00
2023-02-21T10:56:27.129Z,1593.00
2023-02-21T10:57:27.140Z,1580.00
2023-02-21T10:58:27.114Z,1375.00
2023-02-21T10:59:27.126Z,1309.00
2023-02-21T11:05:27.160Z,1138.00
2023-02-21T11:11:27.122Z,891.00
2023-02-21T11:12:27.178Z,907.00
2023-02-21T11:13:27.116Z,886.00
2023-02-21T11:14:27.138Z,872.00
2023-02-21T11:15:27.117Z,917.00
2023-02-21T11:16:27.146Z,934.00
2023-02-21T11:17:27.112Z,900.00
2023-02-21T11:18:27.145Z,1018.00
2023-02-21T11:19:27.097Z,1007.00
2023-02-21T11:20:27.115Z,823.00
2023-02-21T11:21:27.559Z,839.00
2023-02-21T11:22:27.115Z,864.00
2023-02-21T11:23:27.118Z,921.00
2023-02-21T11:24:27.156Z,1009.00
2023-02-21T11:25:27.105Z,1001.00
2023-02-21T11:26:27.123Z,976.00
2023-02-21T11:27:27.085Z,868.00
2023-02-21T11:28:27.108Z,749.00
2023-02-21T11:29:27.104Z,590.00
2023-02-21T11:30:27.103Z,647.00
2023-02-21T11:31:27.152Z,551.00
2023-02-21T11:32:27.102Z,648.00
2023-02-21T11:33:27.087Z,650.00
2023-02-21T11:34:27.072Z,638.00
2023-02-21T11:35:27.070Z,569.00
2023-02-21T11:36:27.606Z,618.00
2023-02-21T11:37:27.085Z,919.00
2023-02-21T11:38:28.480Z,1065.00
2023-02-21T11:39:27.123Z,1270.00
2023-02-21T11:40:27.127Z,1370.00
2023-02-21T11:41:27.582Z,1442.00
2023-02-21T11:42:27.134Z,1468.00
2023-02-21T11:43:27.138Z,1503.00
2023-02-21T11:44:27.124Z,1539.00
2023-02-21T11:45:27.146Z,1575.00
2023-02-21T11:46:27.666Z,1580.00
2023-02-21T11:47:27.157Z,1616.00
2023-02-21T11:50:27.242Z,1660.00
2023-02-21T11:51:27.598Z,1659.00
2023-02-21T11:52:27.276Z,1661.00
2023-02-21T11:53:27.262Z,1678.00
2023-02-21T11:54:27.295Z,1688.00
2023-02-21T11:55:27.336Z,1684.00
2023-02-21T11:56:27.356Z,1669.00
2023-02-21T11:57:27.354Z,1679.00
2023-02-21T11:58:27.356Z,1688.00
2023-02-21T11:59:27.385Z,1685.00
2023-02-21T12:00:27.427Z,1664.00
2023-02-21T12:01:27.502Z,1676.00
2023-02-21T12:02:27.602Z,1674.00
2023-02-21T12:03:27.583Z,1694.00
2023-02-21T12:04:27.649Z,1703.00
2023-02-21T12:05:27.677Z,1698.00
2023-02-21T12:06:28.125Z,1704.00
2023-02-21T12:07:27.751Z,1711.00
2023-02-21T12:08:27.765Z,1708.00
2023-02-21T12:09:27.846Z,1727.00
2023-02-21T12:10:27.856Z,1687.00
2023-02-21T12:11:27.982Z,1713.00
2023-02-21T12:12:27.965Z,1732.00
2023-02-21T12:13:27.995Z,1746.00
2023-02-21T12:14:28.052Z,1757.00
2023-02-21T12:15:28.095Z,1755.00
2023-02-21T12:16:28.115Z,1754.00
2023-02-21T12:17:28.173Z,1756.00
2023-02-21T12:18:28.222Z,1752.00
2023-02-21T12:19:28.249Z,1755.00
2023-02-21T12:20:28.256Z,1760.00
2023-02-21T12:21:28.288Z,1751.00
2023-02-21T12:22:28.369Z,1766.00
2023-02-21T12:23:28.365Z,1749.00
2023-02-21T12:24:28.439Z,1764.00
2023-02-21T12:25:28.448Z,1766.00
2023-02-21T12:26:28.501Z,1788.00
2023-02-21T12:27:28.570Z,1782.00
2023-02-21T12:28:28.541Z,1772.00
2023-02-21T12:29:28.631Z,1753.00
2023-02-21T12:40:28.981Z,1861.00
2023-02-21T12:41:28.982Z,1848.00
2023-02-21T12:42:29.041Z,1848.00
2023-02-21T12:43:29.103Z,1840.00
2023-02-21T12:44:29.162Z,1835.00
2023-02-21T12:45:29.182Z,1833.00
2023-02-21T12:46:29.263Z,1808.00
2023-02-21T12:47:29.259Z,1799.00
2023-02-21T12:48:29.319Z,1777.00
2023-02-21T12:49:29.340Z,1775.00
2023-02-21T12:50:30.845Z,1761.00
2023-02-21T12:51:29.439Z,1779.00
2023-02-21T12:54:29.567Z,1769.00
2023-02-21T12:55:29.632Z,1770.00
2023-02-21T12:56:29.686Z,1752.00
2023-02-21T12:57:29.739Z,1734.00
2023-02-21T12:58:29.806Z,1736.00
2023-02-21T12:59:29.832Z,1720.00
2023-02-21T13:00:29.879Z,1730.00
2023-02-21T13:01:29.965Z,1722.00
2023-02-21T13:02:30.019Z,1695.00
2023-02-21T13:03:30.045Z,1703.00
2023-02-21T13:04:30.098Z,1759.00
2023-02-21T13:05:30.111Z,1693.00
2023-02-21T13:06:31.572Z,1639.00
2023-02-21T13:07:30.218Z,1664.00
2023-02-21T13:08:30.269Z,1704.00
2023-02-21T13:09:30.279Z,1743.00
2023-02-21T13:10:30.314Z,1749.00
2023-02-21T13:11:30.346Z,1760.00
2023-02-21T13:12:30.401Z,1750.00
2023-02-21T13:13:30.447Z,1730.00
2023-02-21T13:14:30.458Z,1703.00
2023-02-21T13:15:30.505Z,1699.00
2023-02-21T13:16:30.639Z,1689.00
2023-02-21T13:17:30.597Z,1695.00
2023-02-21T13:18:30.631Z,1683.00
2023-02-21T13:19:30.652Z,1686.00
2023-02-21T13:20:30.672Z,1696.00
2023-02-21T13:21:30.660Z,1695.00
2023-02-21T13:22:30.728Z,1705.00
2023-02-21T13:23:30.788Z,1709.00
2023-02-21T13:24:30.801Z,1679.00
2023-02-21T13:25:30.858Z,1691.00
2023-02-21T13:26:30.897Z,1710.00
2023-02-21T13:27:30.899Z,1699.00
2023-02-21T13:28:30.920Z,1697.00
2023-02-21T13:29:30.944Z,1642.00
2023-02-21T13:30:31.074Z,1620.00
2023-02-21T13:32:31.021Z,1638.00
2023-02-21T13:33:31.072Z,1672.00
2023-02-21T13:34:31.096Z,1654.00
2023-02-21T13:35:31.134Z,1650.00
2023-02-21T13:36:31.100Z,1626.00
2023-02-21T13:37:31.187Z,1628.00
2023-02-21T13:38:31.126Z,1645.00
2023-02-21T13:39:31.158Z,1658.00
2023-02-21T13:40:31.137Z,1642.00
2023-02-21T13:41:31.142Z,1650.00
2023-02-21T13:42:31.139Z,1616.00
2023-02-21T13:43:31.185Z,1625.00
2023-02-21T13:44:31.133Z,1623.00
2023-02-21T13:45:31.138Z,1634.00
2023-02-21T13:46:31.203Z,1616.00
2023-02-21T13:47:31.112Z,1597.00
2023-02-21T13:48:31.148Z,1593.00
2023-02-21T13:49:31.168Z,1611.00
2023-02-21T13:50:31.171Z,1601.00
2023-02-21T13:51:31.167Z,1622.00
2023-02-21T13:52:31.131Z,1613.00
2023-02-21T13:53:31.142Z,1613.00
2023-02-21T13:54:31.160Z,1613.00
2023-02-21T13:55:31.165Z,1621.00
2023-02-21T13:56:31.151Z,1610.00
2023-02-21T13:57:31.135Z,1588.00
2023-02-21T13:58:31.134Z,1607.00
2023-02-21T13:59:31.140Z,1609.00
2023-02-21T14:00:31.140Z,1625.00
2023-02-21T14:01:31.146Z,1633.00
2023-02-21T14:02:31.174Z,1633.00
2023-02-21T14:03:31.124Z,1602.00
2023-02-21T14:04:31.136Z,1599.00
2023-02-21T14:05:31.121Z,1588.00
2023-02-21T14:06:31.150Z,1609.00
2023-02-21T14:07:31.183Z,1631.00
2023-02-21T14:08:31.193Z,1578.00
2023-02-21T14:09:31.192Z,1568.00
2023-02-21T14:10:31.193Z,1584.00
2023-02-21T14:11:31.221Z,1559.00
2023-02-21T14:12:31.203Z,1597.00
2023-02-21T14:53:31.294Z,1514.00
2023-02-21T14:54:31.284Z,1521.00
2023-02-21T14:55:31.280Z,1517.00
2023-02-21T14:56:31.282Z,1526.00
2023-02-21T14:57:31.295Z,1524.00
2023-02-21T14:58:31.296Z,1516.00
2023-02-21T14:59:31.311Z,1521.00
2023-02-21T15:00:31.300Z,1510.00
2023-02-21T15:01:31.338Z,1531.00
2023-02-21T15:02:31.271Z,1507.00
2023-02-21T15:03:31.326Z,1513.00
2023-02-21T15:04:31.315Z,1489.00
2023-02-21T15:05:31.325Z,1481.00
2023-02-21T15:06:31.299Z,1487.00
2023-02-21T15:07:31.289Z,1502.00
2023-02-21T15:08:31.286Z,1468.00
2023-02-21T15:09:31.321Z,1425.00
2023-02-21T15:10:31.291Z,1476.00
2023-02-21T15:11:31.335Z,1484.00
2023-02-21T15:12:31.329Z,1493.00
2023-02-21T15:13:31.330Z,1467.00
2023-02-21T15:14:31.339Z,1479.00
2023-02-21T15:15:31.352Z,1450.00
2023-02-21T15:16:31.358Z,1454.00
2023-02-21T15:17:31.345Z,1449.00
2023-02-21T15:18:31.409Z,1448.00
2023-02-21T15:19:31.377Z,1461.00
2023-02-21T15:20:31.370Z,1491.00
2023-02-21T15:21:31.399Z,1477.00
2023-02-21T15:22:31.402Z,1405.00
2023-02-21T15:23:31.378Z,1453.00
2023-02-21T15:24:31.394Z,1472.00
2023-02-21T15:25:31.407Z,1477.00
2023-02-21T15:26:31.414Z,1470.00
2023-02-21T15:27:31.406Z,1466.00
2023-02-21T15:28:31.422Z,1384.00
2023-02-21T15:29:31.386Z,1360.00
2023-02-21T15:30:31.544Z,1367.00
2023-02-21T15:31:31.467Z,1349.00
2023-02-21T15:32:31.436Z,1360.00
2023-02-21T15:33:31.423Z,1357.00
2023-02-21T15:34:31.420Z,1373.00
2023-02-21T15:35:31.465Z,1423.00
2023-02-21T15:36:31.440Z,1454.00
2023-02-21T15:37:31.455Z,1447.00
2023-02-21T15:38:31.452Z,1434.00
2023-02-21T15:39:31.432Z,1409.00
2023-02-21T15:40:31.422Z,1411.00
2023-02-21T15:41:31.453Z,1418.00
2023-02-21T15:42:31.492Z,1400.00
2023-02-21T15:43:31.479Z,1406.00
2023-02-21T15:44:31.523Z,1422.00
2023-02-21T15:45:31.499Z,1427.00
2023-02-21T15:46:31.508Z,1403.00
2023-02-21T15:47:31.509Z,1440.00
2023-02-21T15:48:31.562Z,1351.00
2023-02-21T15:49:31.563Z,1346.00
2023-02-21T15:50:31.693Z,1413.00
2023-02-21T15:51:31.579Z,1438.00
2023-02-21T15:52:31.584Z,1429.00
2023-02-21T15:53:31.589Z,1438.00
2023-02-21T15:54:31.612Z,1410.00
2023-02-21T15:55:31.646Z,1366.00
2023-02-21T15:56:31.677Z,1325.00
2023-02-21T15:57:31.658Z,1339.00
2023-02-21T15:58:31.699Z,1344.00
2023-02-21T15:59:31.695Z,1339.00
2023-02-21T16:00:31.780Z,1318.00
2023-02-21T16:01:31.794Z,1321.00
2023-02-21T16:02:32.539Z,1315.00
2023-02-21T16:03:31.789Z,1304.00
2023-02-21T16:04:31.758Z,1272.00
2023-02-21T16:05:31.767Z,1281.00
2023-02-21T16:06:31.784Z,1279.00
2023-02-21T16:07:31.788Z,1294.00
2023-02-21T16:08:31.793Z,1314.00
2023-02-21T16:09:31.806Z,1327.00
2023-02-21T16:10:31.822Z,1313.00
2023-02-21T16:11:31.837Z,1257.00
2023-02-21T16:12:31.866Z,1257.00
2023-02-21T16:13:31.903Z,1249.00
2023-02-21T16:14:31.911Z,1240.00
2023-02-21T16:15:31.919Z,1228.00
2023-02-21T16:16:31.923Z,1239.00
2023-02-21T16:17:31.901Z,1264.00
2023-02-21T16:18:31.930Z,1262.00
2023-02-21T16:19:31.952Z,1329.00
2023-02-21T16:20:31.945Z,1320.00
2023-02-21T16:21:31.964Z,1248.00
2023-02-21T16:22:34.154Z,1274.00
2023-02-21T16:23:31.972Z,1274.00
2023-02-21T16:24:31.955Z,1280.00
2023-02-21T16:25:31.945Z,1281.00
2023-02-21T16:26:31.955Z,1295.00
2023-02-21T16:27:31.930Z,1297.00
2023-02-21T16:28:31.932Z,1254.00
2023-02-21T16:29:31.900Z,1225.00
2023-02-21T16:30:32.037Z,1203.00
2023-02-21T16:31:31.933Z,1190.00
2023-02-21T16:32:31.901Z,1213.00
2023-02-21T16:33:31.915Z,1225.00
2023-02-21T16:34:31.884Z,1219.00
2023-02-21T16:35:31.874Z,1215.00
2023-02-21T16:36:31.868Z,1202.00
2023-02-21T16:37:31.860Z,1209.00
2023-02-21T16:38:31.863Z,1210.00
2023-02-21T16:39:31.816Z,1208.00
2023-02-21T16:40:31.856Z,1204.00
2023-02-21T16:41:31.819Z,1167.00
2023-02-21T16:42:31.840Z,1180.00
2023-02-21T16:43:31.865Z,1186.00
2023-02-21T16:44:31.863Z,1169.00
2023-02-21T16:45:31.831Z,1148.00
2023-02-21T16:46:31.868Z,1170.00
2023-02-21T16:47:31.807Z,1181.00
2023-02-21T16:48:31.836Z,1168.00
2023-02-21T16:49:31.795Z,1167.00
2023-02-21T16:50:31.829Z,1164.00
2023-02-21T16:51:31.805Z,1157.00
2023-02-21T16:52:31.812Z,1149.00
2023-02-21T16:53:31.798Z,1185.00
2023-02-21T16:54:31.816Z,1167.00
2023-02-21T16:55:31.795Z,1192.00
2023-02-21T16:56:31.794Z,1183.00
2023-02-21T16:57:31.794Z,1195.00
2023-02-21T16:58:31.774Z,1181.00
2023-02-21T16:59:31.770Z,1159.00
2023-02-21T17:00:31.784Z,1152.00
2023-02-21T17:01:31.764Z,1171.00
2023-02-21T17:02:31.751Z,1159.00
2023-02-21T17:03:31.741Z,1148.00
2023-02-21T17:04:31.739Z,1171.00
2023-02-21T17:05:31.703Z,1172.00
2023-02-21T17:06:31.694Z,1154.00
2023-02-21T17:07:31.724Z,1157.00
2023-02-21T17:08:31.696Z,1174.00
2023-02-21T17:09:31.718Z,1193.00
2023-02-21T17:10:31.682Z,1201.00
2023-02-21T17:11:31.686Z,1163.00
2023-02-21T17:12:31.658Z,1174.00
2023-02-21T17:13:31.692Z,1179.00
2023-02-21T17:14:31.663Z,1178.00
2023-02-21T17:15:31.667Z,1191.00
2023-02-21T17:16:31.679Z,1186.00
2023-02-21T17:17:31.683Z,1200.00
2023-02-21T17:18:31.672Z,1201.00
2023-02-21T17:19:31.658Z,1205.00
2023-02-21T17:20:31.654Z,1210.00
2023-02-21T17:21:31.648Z,1215.00
2023-02-21T17:22:31.656Z,1208.00
2023-02-21T17:23:31.638Z,1189.00
2023-02-21T17:24:31.651Z,1187.00
2023-02-21T17:25:31.634Z,1182.00
2023-02-21T17:26:31.658Z,1177.00
2023-02-21T17:27:31.630Z,1161.00
2023-02-21T17:28:31.657Z,1159.00
2023-02-21T17:29:31.632Z,1159.00
2023-02-21T17:30:31.667Z,1152.00
2023-02-21T17:31:31.622Z,1174.00
2023-02-21T17:32:31.714Z,1190.00
2023-02-21T17:33:31.658Z,1179.00
2023-02-21T17:34:31.685Z,1181.00
2023-02-21T17:35:31.735Z,1176.00
2023-02-21T17:36:31.722Z,1183.00
2023-02-21T17:37:31.750Z,1158.00
2023-02-21T17:38:31.803Z,1168.00
2023-02-21T17:39:31.807Z,1166.00
2023-02-21T17:40:31.836Z,1156.00
2023-02-21T17:41:31.869Z,1156.00
2023-02-21T17:42:31.901Z,1171.00
2023-02-21T17:43:31.969Z,1179.00
2023-02-21T17:44:31.949Z,1185.00
2023-02-21T17:45:31.982Z,1187.00
2023-02-21T17:46:32.169Z,1176.00
2023-02-21T17:47:32.046Z,1182.00
2023-02-21T17:48:32.083Z,1184.00
2023-02-21T17:49:32.156Z,1179.00
2023-02-21T17:50:32.170Z,1170.00
2023-02-21T17:51:32.213Z,1158.00
2023-02-21T17:52:33.213Z,1171.00
2023-02-21T17:53:32.285Z,1159.00
2023-02-21T17:54:32.284Z,1131.00
2023-02-21T17:55:32.300Z,1118.00
2023-02-21T17:56:32.352Z,1115.00
2023-02-21T17:57:32.411Z,1087.00
2023-02-21T17:58:32.417Z,1062.00
2023-02-21T17:59:32.485Z,1085.00
2023-02-21T18:00:32.500Z,1098.00
2023-02-21T18:01:32.543Z,1092.00
2023-02-21T18:02:32.571Z,1096.00
2023-02-21T18:03:32.584Z,1101.00
2023-02-21T18:04:32.678Z,1115.00
2023-02-21T18:05:32.677Z,1113.00